createdAt,value
2022-11-29T00:00:44.962Z,5.84
2022-11-29T00:01:45.015Z,5.87
2022-11-29T00:02:45.062Z,5.87
2022-11-29T00:03:44.928Z,5.87
2022-11-29T00:04:45.373Z,5.87
2022-11-29T00:05:44.907Z,5.90
2022-11-29T00:06:44.893Z,5.90
2022-11-29T00:07:44.899Z,5.90
2022-11-29T00:08:44.872Z,5.90
2022-11-29T00:09:44.864Z,5.92
2022-11-29T00:10:44.848Z,5.90
2022-11-29T00:11:44.839Z,5.90
2022-11-29T00:12:44.827Z,5.90
2022-11-29T00:13:44.820Z,5.88
2022-11-29T00:14:45.091Z,5.88
2022-11-29T00:15:44.797Z,5.88
2022-11-29T00:16:44.884Z,5.90
2022-11-29T00:17:44.801Z,5.88
2022-11-29T00:18:44.782Z,5.92
2022-11-29T00:19:44.746Z,5.92
2022-11-29T00:20:44.739Z,5.93
2022-11-29T00:21:44.725Z,5.93
2022-11-29T00:22:44.714Z,5.92
2022-11-29T00:23:44.701Z,5.95
2022-11-29T00:24:44.896Z,5.87
2022-11-29T00:25:44.686Z,5.87
2022-11-29T00:26:44.681Z,5.87
2022-11-29T00:27:44.664Z,5.87
2022-11-29T00:28:44.650Z,5.87
2022-11-29T00:29:44.634Z,5.85
2022-11-29T00:30:44.720Z,5.84
2022-11-29T00:31:44.612Z,5.84
2022-11-29T00:32:44.602Z,5.83
2022-11-29T00:33:44.588Z,5.83
2022-11-29T00:34:44.903Z,5.83
2022-11-29T00:35:44.566Z,5.85
2022-11-29T00:36:44.563Z,5.84
2022-11-29T00:37:44.547Z,5.83
2022-11-29T00:38:44.536Z,5.85
2022-11-29T00:39:44.528Z,5.83
2022-11-29T00:40:44.513Z,5.84
2022-11-29T00:41:44.504Z,5.83
2022-11-29T00:42:44.493Z,5.83
2022-11-29T00:43:44.478Z,5.85
2022-11-29T00:44:44.865Z,5.87
2022-11-29T00:45:44.554Z,5.85
2022-11-29T00:46:44.446Z,5.84
2022-11-29T00:47:44.436Z,5.83
2022-11-29T00:48:44.426Z,5.84
2022-11-29T00:49:44.414Z,5.84
2022-11-29T00:50:44.429Z,5.83
2022-11-29T00:51:44.405Z,5.84
2022-11-29T00:52:44.383Z,5.83
2022-11-29T00:53:44.370Z,5.83
2022-11-29T00:54:44.663Z,5.84
2022-11-29T00:55:44.345Z,5.85
2022-11-29T00:56:44.334Z,5.87
2022-11-29T00:57:44.470Z,5.88
2022-11-29T00:58:44.313Z,5.87
2022-11-29T00:59:44.299Z,5.88
2022-11-29T01:00:44.296Z,5.85
2022-11-29T01:01:44.359Z,5.87
2022-11-29T01:02:44.330Z,5.85
2022-11-29T01:03:44.253Z,5.84
2022-11-29T01:04:44.624Z,5.83
2022-11-29T01:05:44.235Z,5.84
2022-11-29T01:06:44.249Z,5.83
2022-11-29T01:07:44.295Z,5.84
2022-11-29T01:08:44.202Z,5.85
2022-11-29T01:09:44.191Z,5.84
2022-11-29T01:10:44.186Z,5.84
2022-11-29T01:11:44.164Z,5.84
2022-11-29T01:12:44.154Z,5.84
2022-11-29T01:13:44.153Z,5.87
2022-11-29T01:14:44.514Z,5.87
2022-11-29T01:15:44.268Z,5.85
2022-11-29T01:16:44.191Z,5.88
2022-11-29T01:17:44.096Z,5.87
2022-11-29T01:18:44.126Z,5.87
2022-11-29T01:19:49.321Z,5.87
2022-11-29T01:20:45.096Z,5.85
2022-11-29T01:21:44.059Z,5.85
2022-11-29T01:22:44.071Z,5.85
2022-11-29T01:23:44.045Z,5.87
2022-11-29T01:24:44.537Z,5.88
2022-11-29T01:25:44.016Z,5.87
2022-11-29T01:26:43.996Z,5.85
2022-11-29T01:27:43.989Z,5.85
2022-11-29T01:28:43.973Z,5.83
2022-11-29T01:29:43.970Z,5.80
2022-11-29T01:30:44.026Z,5.78
2022-11-29T01:31:43.944Z,5.80
2022-11-29T01:32:43.927Z,5.80
2022-11-29T01:33:43.920Z,5.81
2022-11-29T01:34:44.252Z,5.83
2022-11-29T01:35:43.899Z,5.83
2022-11-29T01:36:43.887Z,5.84
2022-11-29T01:37:43.874Z,5.83
2022-11-29T01:38:43.886Z,5.85
2022-11-29T01:39:43.855Z,5.84
2022-11-29T01:40:43.838Z,5.83
2022-11-29T01:41:43.828Z,5.80
2022-11-29T01:42:43.819Z,5.81
2022-11-29T01:43:43.808Z,5.81
2022-11-29T01:44:43.989Z,5.83
2022-11-29T01:45:43.872Z,5.84
2022-11-29T01:46:43.782Z,5.85
2022-11-29T01:47:43.762Z,5.84
2022-11-29T01:48:43.752Z,5.85
2022-11-29T01:49:43.738Z,5.84
2022-11-29T01:50:43.725Z,5.83
2022-11-29T01:51:43.721Z,5.84
2022-11-29T01:52:43.705Z,5.84
2022-11-29T01:53:43.694Z,5.85
2022-11-29T01:54:44.039Z,5.85
2022-11-29T01:55:43.719Z,5.84
2022-11-29T01:56:43.661Z,5.83
2022-11-29T01:57:43.653Z,5.84
2022-11-29T01:58:43.637Z,5.85
2022-11-29T01:59:43.737Z,5.85
2022-11-29T02:00:43.613Z,5.87
2022-11-29T02:01:43.724Z,5.84
2022-11-29T02:02:43.691Z,5.85
2022-11-29T02:03:43.582Z,5.83
2022-11-29T02:04:43.950Z,5.87
2022-11-29T02:05:43.558Z,5.85
2022-11-29T02:06:43.551Z,5.85
2022-11-29T02:07:43.628Z,5.84
2022-11-29T02:08:43.524Z,5.83
2022-11-29T02:09:43.514Z,5.85
2022-11-29T02:10:43.528Z,5.85
2022-11-29T02:11:43.492Z,5.85
2022-11-29T02:12:43.480Z,5.84
2022-11-29T02:13:43.471Z,5.85
2022-11-29T02:14:43.776Z,5.84
2022-11-29T02:15:43.526Z,5.84
2022-11-29T02:16:43.437Z,5.83
2022-11-29T02:17:43.428Z,5.84
2022-11-29T02:18:43.412Z,5.83
2022-11-29T02:19:43.418Z,5.84
2022-11-29T02:20:43.393Z,5.85
2022-11-29T02:21:43.379Z,5.85
2022-11-29T02:22:43.717Z,5.85
2022-11-29T02:23:43.361Z,5.87
2022-11-29T02:24:43.881Z,5.88
2022-11-29T02:25:43.347Z,5.90
2022-11-29T02:26:43.366Z,5.90
2022-11-29T02:27:43.312Z,5.85
2022-11-29T02:28:43.300Z,5.87
2022-11-29T02:29:43.291Z,5.88
2022-11-29T02:30:43.338Z,5.87
2022-11-29T02:31:43.316Z,5.87
2022-11-29T02:32:43.253Z,5.85
2022-11-29T02:33:43.249Z,5.85
2022-11-29T02:34:43.738Z,5.84
2022-11-29T02:35:43.223Z,5.87
2022-11-29T02:36:43.211Z,5.85
2022-11-29T02:37:43.200Z,5.85
2022-11-29T02:38:43.186Z,5.85
2022-11-29T02:39:43.177Z,5.88
2022-11-29T02:40:43.168Z,5.88
2022-11-29T02:41:43.164Z,5.87
2022-11-29T02:42:43.173Z,5.87
2022-11-29T02:43:43.133Z,5.87
2022-11-29T02:44:43.425Z,5.87
2022-11-29T02:45:43.188Z,5.87
2022-11-29T02:46:43.099Z,5.87
2022-11-29T02:47:43.088Z,5.88
2022-11-29T02:48:43.376Z,5.90
2022-11-29T02:49:43.066Z,5.88
2022-11-29T02:50:43.057Z,5.88
2022-11-29T02:51:43.043Z,5.88
2022-11-29T02:52:43.032Z,5.90
2022-11-29T02:53:43.020Z,5.90
2022-11-29T02:54:43.320Z,5.92
2022-11-29T02:55:43.007Z,5.88
2022-11-29T02:56:42.989Z,5.90
2022-11-29T02:57:42.981Z,5.88
2022-11-29T02:58:42.988Z,5.90
2022-11-29T02:59:42.957Z,5.88
2022-11-29T03:00:42.950Z,5.90
2022-11-29T03:01:43.079Z,5.92
2022-11-29T03:02:42.982Z,5.88
2022-11-29T03:03:42.920Z,5.90
2022-11-29T03:04:43.205Z,5.90
2022-11-29T03:05:42.921Z,5.90
2022-11-29T03:06:42.873Z,5.92
2022-11-29T03:07:42.909Z,5.90
2022-11-29T03:08:42.850Z,5.92
2022-11-29T03:09:42.846Z,5.92
2022-11-29T03:10:42.831Z,5.92
2022-11-29T03:11:42.818Z,5.88
2022-11-29T03:12:42.806Z,5.90
2022-11-29T03:13:42.794Z,5.90
2022-11-29T03:14:43.027Z,5.90
2022-11-29T03:15:42.819Z,5.90
2022-11-29T03:16:43.654Z,5.90
2022-11-29T03:17:42.753Z,5.90
2022-11-29T03:18:42.743Z,5.90
2022-11-29T03:19:42.735Z,5.90
2022-11-29T03:20:42.717Z,5.90
2022-11-29T03:21:42.761Z,5.92
2022-11-29T03:22:42.696Z,5.92
2022-11-29T03:23:42.685Z,5.92
2022-11-29T03:24:42.982Z,5.90
2022-11-29T03:25:42.661Z,5.88
2022-11-29T03:26:42.651Z,5.87
2022-11-29T03:27:42.641Z,5.92
2022-11-29T03:28:42.628Z,5.88
2022-11-29T03:29:42.618Z,5.88
2022-11-29T03:30:42.711Z,5.87
2022-11-29T03:31:42.611Z,5.88
2022-11-29T03:32:42.585Z,5.88
2022-11-29T03:33:42.576Z,5.88
2022-11-29T03:34:42.738Z,5.90
2022-11-29T03:35:42.551Z,5.90
2022-11-29T03:36:42.546Z,5.88
2022-11-29T03:37:42.529Z,5.92
2022-11-29T03:38:42.521Z,5.90
2022-11-29T03:39:42.507Z,5.90
2022-11-29T03:40:42.495Z,5.88
2022-11-29T03:41:42.483Z,5.90
2022-11-29T03:42:42.474Z,5.90
2022-11-29T03:43:42.464Z,5.90
2022-11-29T03:44:42.816Z,5.90
2022-11-29T03:45:42.440Z,5.90
2022-11-29T03:46:42.573Z,5.92
2022-11-29T03:47:42.420Z,5.92
2022-11-29T03:48:42.404Z,5.93
2022-11-29T03:49:42.397Z,5.95
2022-11-29T03:50:42.385Z,5.96
2022-11-29T03:51:42.375Z,5.93
2022-11-29T03:52:42.360Z,5.95
2022-11-29T03:53:42.350Z,5.92
2022-11-29T03:54:42.831Z,5.95
2022-11-29T03:55:42.328Z,5.96
2022-11-29T03:56:42.318Z,5.92
2022-11-29T03:57:42.307Z,5.92
2022-11-29T03:58:42.302Z,5.93
2022-11-29T03:59:42.304Z,5.92
2022-11-29T04:00:42.270Z,5.90
2022-11-29T04:01:42.363Z,5.92
2022-11-29T04:02:42.408Z,5.92
2022-11-29T04:03:42.239Z,5.90
2022-11-29T04:04:42.410Z,5.90
2022-11-29T04:05:42.218Z,5.95
2022-11-29T04:06:42.206Z,5.92
2022-11-29T04:07:42.283Z,5.93
2022-11-29T04:08:42.185Z,5.90
2022-11-29T04:09:42.170Z,5.93
2022-11-29T04:10:42.160Z,5.93
2022-11-29T04:11:42.148Z,5.92
2022-11-29T04:12:42.142Z,5.95
2022-11-29T04:13:42.127Z,5.95
2022-11-29T04:14:42.289Z,5.93
2022-11-29T04:15:42.157Z,5.95
2022-11-29T04:16:42.244Z,5.95
2022-11-29T04:17:42.081Z,5.95
2022-11-29T04:18:42.092Z,5.93
2022-11-29T04:19:42.060Z,5.93
2022-11-29T04:20:46.699Z,5.93
2022-11-29T04:21:43.064Z,5.93
2022-11-29T04:22:42.026Z,5.93
2022-11-29T04:23:42.013Z,5.95
2022-11-29T04:24:42.236Z,5.92
2022-11-29T04:25:41.996Z,5.93
2022-11-29T04:26:41.990Z,5.93
2022-11-29T04:27:42.002Z,5.95
2022-11-29T04:28:41.975Z,5.93
2022-11-29T04:29:41.993Z,5.95
2022-11-29T04:30:41.951Z,5.93
2022-11-29T04:31:41.951Z,5.92
2022-11-29T04:32:41.921Z,5.93
2022-11-29T04:33:41.914Z,5.92
2022-11-29T04:34:42.377Z,5.90
2022-11-29T04:35:41.882Z,5.93
2022-11-29T04:36:41.870Z,5.93
2022-11-29T04:37:41.869Z,5.95
2022-11-29T04:38:41.846Z,5.95
2022-11-29T04:39:41.838Z,5.92
2022-11-29T04:40:41.826Z,5.90
2022-11-29T04:41:41.818Z,5.93
2022-11-29T04:42:41.819Z,5.95
2022-11-29T04:43:41.791Z,5.92
2022-11-29T04:44:41.919Z,5.93
2022-11-29T04:45:41.770Z,5.95
2022-11-29T04:46:41.814Z,5.93
2022-11-29T04:47:41.748Z,5.93
2022-11-29T04:48:41.738Z,5.93
2022-11-29T04:49:41.734Z,5.95
2022-11-29T04:50:41.740Z,5.92
2022-11-29T04:51:41.702Z,5.93
2022-11-29T04:52:41.691Z,5.92
2022-11-29T04:53:41.679Z,5.90
2022-11-29T04:54:41.890Z,5.90
2022-11-29T04:55:41.659Z,5.93
2022-11-29T04:56:41.646Z,5.92
2022-11-29T04:57:41.635Z,5.93
2022-11-29T04:58:41.621Z,5.93
2022-11-29T04:59:41.612Z,5.90
2022-11-29T05:00:41.600Z,5.92
2022-11-29T05:01:41.627Z,5.92
2022-11-29T05:02:41.618Z,5.93
2022-11-29T05:03:41.570Z,5.90
2022-11-29T05:04:41.557Z,5.90
2022-11-29T05:05:41.547Z,5.90
2022-11-29T05:06:41.558Z,5.90
2022-11-29T05:07:41.543Z,5.90
2022-11-29T05:08:41.510Z,5.90
2022-11-29T05:09:41.504Z,5.90
2022-11-29T05:10:41.489Z,5.92
2022-11-29T05:11:41.477Z,5.90
2022-11-29T05:12:41.778Z,5.90
2022-11-29T05:13:41.457Z,5.92
2022-11-29T05:14:41.569Z,5.90
2022-11-29T05:15:41.501Z,5.90
2022-11-29T05:16:41.423Z,5.92
2022-11-29T05:17:41.411Z,5.92
2022-11-29T05:18:41.401Z,5.90
2022-11-29T05:19:41.391Z,5.90
2022-11-29T05:20:41.376Z,5.87
2022-11-29T05:21:41.435Z,5.88
2022-11-29T05:22:41.386Z,5.88
2022-11-29T05:23:41.343Z,5.92
2022-11-29T05:24:41.338Z,5.90
2022-11-29T05:25:41.340Z,5.90
2022-11-29T05:26:41.309Z,5.92
2022-11-29T05:27:41.303Z,5.92
2022-11-29T05:28:41.301Z,5.93
2022-11-29T05:29:41.299Z,5.90
2022-11-29T05:30:41.282Z,5.93
2022-11-29T05:31:41.278Z,5.92
2022-11-29T05:32:41.247Z,5.93
2022-11-29T05:33:41.260Z,5.96
2022-11-29T05:34:41.222Z,5.93
2022-11-29T05:35:41.210Z,5.93
2022-11-29T05:36:41.199Z,5.93
2022-11-29T05:37:41.188Z,5.95
2022-11-29T05:38:41.203Z,5.93
2022-11-29T05:39:41.163Z,5.93
2022-11-29T05:40:41.155Z,5.92
2022-11-29T05:41:41.167Z,5.95
2022-11-29T05:42:41.331Z,5.93
2022-11-29T05:43:41.123Z,5.95
2022-11-29T05:44:41.111Z,5.95
2022-11-29T05:45:41.096Z,5.92
2022-11-29T05:46:41.170Z,5.92
2022-11-29T05:47:41.074Z,5.95
2022-11-29T05:48:41.067Z,5.92
2022-11-29T05:49:41.051Z,5.88
2022-11-29T05:50:41.062Z,5.90
2022-11-29T05:51:41.039Z,5.92
2022-11-29T05:52:41.021Z,5.88
2022-11-29T05:53:41.005Z,5.90
2022-11-29T05:54:41.024Z,5.88
2022-11-29T05:55:40.985Z,5.88
2022-11-29T05:56:40.973Z,5.88
2022-11-29T05:57:40.969Z,5.88
2022-11-29T05:58:40.952Z,5.92
2022-11-29T05:59:40.941Z,5.90
2022-11-29T06:00:40.934Z,5.90
2022-11-29T06:01:40.969Z,5.90
2022-11-29T06:02:40.931Z,5.92
2022-11-29T06:03:40.895Z,5.88
2022-11-29T06:04:40.891Z,5.90
2022-11-29T06:05:40.873Z,5.90
2022-11-29T06:06:40.865Z,5.93
2022-11-29T06:07:40.895Z,5.93
2022-11-29T06:08:40.843Z,5.92
2022-11-29T06:09:40.830Z,5.92
2022-11-29T06:10:40.847Z,5.90
2022-11-29T06:11:40.807Z,5.88
2022-11-29T06:12:40.802Z,5.88
2022-11-29T06:13:40.787Z,5.88
2022-11-29T06:14:40.773Z,5.88
2022-11-29T06:15:40.762Z,5.90
2022-11-29T06:16:40.754Z,5.90
2022-11-29T06:17:40.788Z,5.90
2022-11-29T06:18:40.730Z,5.88
2022-11-29T06:19:40.718Z,5.87
2022-11-29T06:22:26.523Z,5.90
2022-11-29T06:23:26.505Z,5.87
2022-11-29T06:24:26.493Z,5.87
2022-11-29T06:25:26.490Z,5.87
2022-11-29T06:26:26.499Z,5.87
2022-11-29T06:27:26.460Z,5.88
2022-11-29T06:28:26.451Z,5.87
2022-11-29T06:29:26.440Z,5.88
2022-11-29T06:30:26.427Z,5.85
2022-11-29T06:31:26.458Z,5.85
2022-11-29T06:32:26.469Z,5.85
2022-11-29T06:33:26.394Z,5.85
2022-11-29T06:34:30.735Z,5.85
2022-11-29T06:35:26.372Z,5.85
2022-11-29T06:36:26.357Z,5.88
2022-11-29T06:37:26.349Z,5.88
2022-11-29T06:38:26.336Z,5.88
2022-11-29T06:39:26.328Z,5.87
2022-11-29T06:40:26.318Z,5.84
2022-11-29T06:41:26.304Z,5.88
2022-11-29T06:42:26.317Z,5.84
2022-11-29T06:43:26.282Z,5.84
2022-11-29T06:44:26.276Z,5.84
2022-11-29T06:45:26.258Z,5.84
2022-11-29T06:46:26.307Z,5.85
2022-11-29T06:47:26.240Z,5.85
2022-11-29T06:48:26.231Z,5.84
2022-11-29T06:49:26.222Z,5.84
2022-11-29T06:50:26.203Z,5.85
2022-11-29T06:51:26.192Z,5.85
2022-11-29T06:52:26.183Z,5.87
2022-11-29T06:53:26.169Z,5.85
2022-11-29T06:54:26.162Z,5.83
2022-11-29T06:55:26.151Z,5.81
2022-11-29T06:56:26.139Z,5.84
2022-11-29T06:57:26.127Z,5.80
2022-11-29T06:58:26.540Z,5.80
2022-11-29T06:59:26.105Z,5.75
2022-11-29T07:00:26.093Z,5.80
2022-11-29T07:01:26.159Z,5.80
2022-11-29T07:02:26.206Z,5.80
2022-11-29T07:03:26.060Z,5.81
2022-11-29T07:04:26.050Z,5.81
2022-11-29T07:05:26.059Z,5.81
2022-11-29T07:06:26.026Z,5.83
2022-11-29T07:07:26.062Z,5.81
2022-11-29T07:08:26.006Z,5.84
2022-11-29T07:09:25.994Z,5.83
2022-11-29T07:10:25.990Z,5.81
2022-11-29T07:11:25.970Z,5.81
2022-11-29T07:12:25.961Z,5.83
2022-11-29T07:13:25.949Z,5.81
2022-11-29T07:14:25.964Z,5.81
2022-11-29T07:15:25.928Z,5.83
2022-11-29T07:16:25.947Z,5.81
2022-11-29T07:17:25.902Z,5.81
2022-11-29T07:18:25.895Z,5.80
2022-11-29T07:19:25.883Z,5.80
2022-11-29T07:20:25.872Z,5.80
2022-11-29T07:21:25.861Z,5.81
2022-11-29T07:22:25.849Z,5.80
2022-11-29T07:23:25.836Z,5.78
2022-11-29T07:24:25.828Z,5.80
2022-11-29T07:25:25.816Z,5.81
2022-11-29T07:26:25.806Z,5.81
2022-11-29T07:27:25.793Z,5.81
2022-11-29T07:28:25.788Z,5.81
2022-11-29T07:29:25.769Z,5.81
2022-11-29T07:30:25.787Z,5.81
2022-11-29T07:31:25.788Z,5.83
2022-11-29T07:32:25.738Z,5.84
2022-11-29T07:33:25.726Z,5.85
2022-11-29T07:34:25.717Z,5.87
2022-11-29T07:35:25.705Z,5.88
2022-11-29T07:36:25.693Z,5.88
2022-11-29T07:37:25.686Z,5.88
2022-11-29T07:38:25.672Z,5.90
2022-11-29T07:39:25.658Z,5.87
2022-11-29T07:40:25.649Z,5.88
2022-11-29T07:41:25.636Z,5.88
2022-11-29T07:42:25.627Z,5.88
2022-11-29T07:43:25.620Z,5.88
2022-11-29T07:44:25.607Z,5.92
2022-11-29T07:45:25.591Z,5.88
2022-11-29T07:46:25.686Z,5.90
2022-11-29T07:47:25.566Z,5.88
2022-11-29T07:48:25.563Z,5.87
2022-11-29T07:49:25.547Z,5.87
2022-11-29T07:50:25.537Z,5.87
2022-11-29T07:51:25.526Z,5.90
2022-11-29T07:52:25.517Z,5.90
2022-11-29T07:53:25.505Z,5.92
2022-11-29T07:54:25.497Z,5.90
2022-11-29T07:55:25.480Z,5.95
2022-11-29T07:56:25.473Z,5.95
2022-11-29T07:57:25.456Z,5.93
2022-11-29T07:58:25.496Z,5.98
2022-11-29T07:59:25.434Z,5.98
2022-11-29T08:00:25.515Z,5.96
2022-11-29T08:01:25.548Z,5.96
2022-11-29T08:02:25.489Z,5.93
2022-11-29T08:03:25.589Z,5.96
2022-11-29T08:04:25.380Z,5.93
2022-11-29T08:05:25.373Z,5.93
2022-11-29T08:06:25.357Z,5.95
2022-11-29T08:07:25.449Z,5.96
2022-11-29T08:08:25.336Z,5.98
2022-11-29T08:09:25.328Z,5.96
2022-11-29T08:10:25.413Z,5.96
2022-11-29T08:11:25.305Z,5.96
2022-11-29T08:12:25.289Z,5.95
2022-11-29T08:13:25.280Z,5.98
2022-11-29T08:14:25.282Z,5.99
2022-11-29T08:15:25.256Z,6.01
2022-11-29T08:16:25.326Z,5.99
2022-11-29T08:17:25.232Z,5.99
2022-11-29T08:18:25.246Z,6.01
2022-11-29T08:19:25.211Z,6.01
2022-11-29T08:20:25.287Z,6.01
2022-11-29T08:21:25.190Z,6.01
2022-11-29T08:22:25.187Z,6.02
2022-11-29T08:23:25.164Z,6.05
2022-11-29T08:24:25.159Z,6.06
2022-11-29T08:25:25.143Z,6.06
2022-11-29T08:26:31.084Z,6.06
2022-11-29T08:27:26.147Z,6.11
2022-11-29T08:28:25.112Z,6.10
2022-11-29T08:29:25.099Z,6.11
2022-11-29T08:30:25.171Z,6.11
2022-11-29T08:31:25.163Z,6.16
2022-11-29T08:32:25.069Z,6.16
2022-11-29T08:33:25.304Z,6.16
2022-11-29T08:34:25.069Z,6.16
2022-11-29T08:35:25.036Z,6.14
2022-11-29T08:36:25.022Z,6.17
2022-11-29T08:37:25.008Z,6.19
2022-11-29T08:38:25.001Z,6.19
2022-11-29T08:39:24.984Z,6.19
2022-11-29T08:40:24.975Z,6.16
2022-11-29T08:41:24.964Z,6.19
2022-11-29T08:42:24.954Z,6.20
2022-11-29T08:43:24.941Z,6.24
2022-11-29T08:44:24.933Z,6.21
2022-11-29T08:45:24.967Z,6.19
2022-11-29T08:46:24.951Z,6.17
2022-11-29T08:47:24.902Z,6.17
2022-11-29T08:48:24.903Z,6.20
2022-11-29T08:49:25.081Z,6.20
2022-11-29T08:50:24.900Z,6.24
2022-11-29T08:51:24.853Z,6.27
2022-11-29T08:52:24.847Z,6.33
2022-11-29T08:53:24.835Z,6.33
2022-11-29T08:54:24.825Z,6.35
2022-11-29T08:55:24.812Z,6.35
2022-11-29T08:57:10.236Z,6.36
2022-11-29T08:57:41.475Z,6.38
2022-11-29T08:58:25.826Z,6.40
2022-11-29T08:59:24.767Z,6.38
2022-11-29T09:00:24.759Z,6.33
2022-11-29T09:01:24.818Z,6.32
2022-11-29T09:02:24.832Z,6.30
2022-11-29T09:03:24.723Z,6.32
2022-11-29T09:04:24.715Z,6.35
2022-11-29T09:05:24.702Z,6.39
2022-11-29T09:06:24.716Z,6.42
2022-11-29T09:07:24.709Z,6.42
2022-11-29T09:08:24.670Z,6.39
2022-11-29T09:09:24.658Z,6.36
2022-11-29T09:10:24.655Z,6.39
2022-11-29T09:11:24.633Z,6.40
2022-11-29T09:12:24.622Z,6.43
2022-11-29T09:13:24.614Z,6.46
2022-11-29T09:14:24.600Z,6.48
2022-11-29T09:15:24.594Z,6.48
2022-11-29T09:16:24.624Z,6.50
2022-11-29T09:17:24.567Z,6.54
2022-11-29T09:18:24.558Z,6.57
2022-11-29T09:19:24.545Z,6.57
2022-11-29T09:20:24.535Z,6.60
2022-11-29T09:21:24.521Z,6.63
2022-11-29T09:22:24.542Z,6.60
2022-11-29T09:23:24.501Z,6.58
2022-11-29T09:24:24.491Z,6.60
2022-11-29T09:25:24.478Z,6.60
2022-11-29T09:26:24.467Z,6.58
2022-11-29T09:27:24.457Z,6.57
2022-11-29T09:28:24.443Z,6.58
2022-11-29T09:29:24.432Z,6.61
2022-11-29T09:30:24.435Z,6.54
2022-11-29T09:31:24.472Z,6.55
2022-11-29T09:32:24.399Z,6.57
2022-11-29T09:33:24.391Z,6.58
2022-11-29T09:34:24.383Z,6.51
2022-11-29T09:35:24.364Z,6.51
2022-11-29T09:36:28.474Z,6.51
2022-11-29T09:37:24.367Z,6.53
2022-11-29T09:38:24.362Z,6.50
2022-11-29T09:39:24.321Z,6.51
2022-11-29T09:40:24.315Z,6.48
2022-11-29T09:41:24.298Z,6.51
2022-11-29T09:42:24.292Z,6.53
2022-11-29T09:43:24.276Z,6.51
2022-11-29T09:44:24.265Z,6.54
2022-11-29T09:45:24.255Z,6.54
2022-11-29T09:46:24.264Z,6.57
2022-11-29T09:47:24.230Z,6.58
2022-11-29T09:48:24.221Z,6.61
2022-11-29T09:49:24.208Z,6.64
2022-11-29T09:50:24.199Z,6.63
2022-11-29T09:51:24.387Z,6.65
2022-11-29T09:52:24.196Z,6.60
2022-11-29T09:53:24.165Z,6.61
2022-11-29T09:54:24.243Z,6.64
2022-11-29T09:55:24.144Z,6.68
2022-11-29T09:56:24.135Z,6.69
2022-11-29T09:57:24.119Z,6.72
2022-11-29T09:58:24.114Z,6.73
2022-11-29T09:59:24.098Z,6.73
2022-11-29T10:00:24.089Z,6.72
2022-11-29T10:01:24.127Z,6.75
2022-11-29T10:02:24.116Z,6.75
2022-11-29T10:03:24.051Z,6.69
2022-11-29T10:04:24.042Z,6.68
2022-11-29T10:05:24.040Z,6.71
2022-11-29T10:06:24.020Z,6.73
2022-11-29T10:07:24.098Z,6.76
2022-11-29T10:08:24.002Z,6.73
2022-11-29T10:09:23.984Z,6.75
2022-11-29T10:10:24.030Z,6.76
2022-11-29T10:11:23.963Z,6.76
2022-11-29T10:12:23.951Z,6.78
2022-11-29T10:13:23.941Z,6.73
2022-11-29T10:14:23.931Z,6.75
2022-11-29T10:15:23.923Z,6.79
2022-11-29T10:16:23.945Z,6.83
2022-11-29T10:17:23.893Z,6.81
2022-11-29T10:18:23.884Z,6.86
2022-11-29T10:19:23.923Z,6.81
2022-11-29T10:20:23.864Z,6.83
2022-11-29T10:21:23.852Z,6.89
2022-11-29T10:22:23.840Z,6.93
2022-11-29T10:23:23.827Z,6.99
2022-11-29T10:24:23.821Z,6.97
2022-11-29T10:25:23.804Z,6.94
2022-11-29T10:26:23.820Z,6.91
2022-11-29T10:27:23.823Z,6.93
2022-11-29T10:28:23.771Z,6.99
2022-11-29T10:29:23.759Z,7.07
2022-11-29T10:30:23.858Z,7.08
2022-11-29T10:31:23.740Z,7.07
2022-11-29T10:32:23.727Z,7.07
2022-11-29T10:33:23.718Z,7.01
2022-11-29T10:34:23.703Z,7.00
2022-11-29T10:35:23.695Z,7.05
2022-11-29T10:36:23.686Z,7.05
2022-11-29T10:37:23.676Z,7.11
2022-11-29T10:38:30.755Z,7.11
2022-11-29T10:39:24.677Z,7.09
2022-11-29T10:40:23.638Z,7.05
2022-11-29T10:41:23.626Z,7.05
2022-11-29T10:42:23.659Z,7.08
2022-11-29T10:43:23.603Z,7.11
2022-11-29T10:44:23.590Z,7.09
2022-11-29T10:45:23.579Z,7.04
2022-11-29T10:46:23.637Z,7.01
2022-11-29T10:47:23.562Z,6.99
2022-11-29T10:48:23.548Z,6.97
2022-11-29T10:49:23.535Z,7.00
2022-11-29T10:50:23.523Z,7.05
2022-11-29T10:51:23.511Z,7.05
2022-11-29T10:52:23.509Z,7.09
2022-11-29T10:53:23.490Z,7.08
2022-11-29T10:54:23.484Z,7.14
2022-11-29T10:55:23.467Z,7.14
2022-11-29T10:56:23.457Z,7.14
2022-11-29T10:57:23.446Z,7.15
2022-11-29T10:58:27.908Z,7.08
2022-11-29T10:59:23.423Z,7.04
2022-11-29T11:00:23.411Z,7.05
2022-11-29T11:01:23.551Z,7.08
2022-11-29T11:02:23.389Z,7.12
2022-11-29T11:03:23.380Z,7.14
2022-11-29T11:04:23.366Z,7.11
2022-11-29T11:05:23.379Z,7.08
2022-11-29T11:06:23.356Z,7.05
2022-11-29T11:07:23.468Z,7.07
2022-11-29T11:08:23.320Z,7.07
2022-11-29T11:09:23.318Z,7.05
2022-11-29T11:10:23.298Z,7.07
2022-11-29T11:11:23.290Z,7.09
2022-11-29T11:12:23.275Z,7.11
2022-11-29T11:13:23.387Z,7.16
2022-11-29T11:14:23.286Z,7.19
2022-11-29T11:15:23.246Z,7.21
2022-11-29T11:16:23.311Z,7.21
2022-11-29T11:17:23.224Z,7.19
2022-11-29T11:18:23.208Z,7.24
2022-11-29T11:19:23.197Z,7.21
2022-11-29T11:20:23.200Z,7.15
2022-11-29T11:21:23.174Z,7.11
2022-11-29T11:22:23.162Z,7.08
2022-11-29T11:23:23.157Z,7.01
2022-11-29T11:24:23.138Z,7.04
2022-11-29T11:25:23.130Z,7.08
2022-11-29T11:26:23.118Z,7.09
2022-11-29T11:27:23.133Z,7.11
2022-11-29T11:28:23.099Z,7.12
2022-11-29T11:29:23.094Z,7.11
2022-11-29T11:30:23.099Z,7.12
2022-11-29T11:31:23.138Z,7.14
2022-11-29T11:32:23.052Z,7.12
2022-11-29T11:33:23.038Z,7.15
2022-11-29T11:34:23.029Z,7.16
2022-11-29T11:35:23.019Z,7.16
2022-11-29T11:36:23.007Z,7.16
2022-11-29T11:37:22.997Z,7.16
2022-11-29T11:38:22.983Z,7.23
2022-11-29T11:39:22.975Z,7.24
2022-11-29T11:40:23.003Z,7.23
2022-11-29T11:41:22.951Z,7.16
2022-11-29T11:42:22.935Z,7.21
2022-11-29T11:43:22.927Z,7.26
2022-11-29T11:44:50.517Z,7.27
2022-11-29T11:45:23.952Z,7.26
2022-11-29T11:46:23.009Z,7.24
2022-11-29T11:47:22.884Z,7.26
2022-11-29T11:48:22.871Z,7.30
2022-11-29T11:49:22.863Z,7.32
2022-11-29T11:50:22.847Z,7.33
2022-11-29T11:51:22.850Z,7.34
2022-11-29T11:52:22.825Z,7.36
2022-11-29T11:53:22.814Z,7.34
2022-11-29T11:54:22.801Z,7.29
2022-11-29T11:55:22.792Z,7.23
2022-11-29T11:56:22.780Z,7.21
2022-11-29T11:57:22.769Z,7.21
2022-11-29T11:58:22.759Z,7.26
2022-11-29T11:59:22.748Z,7.23
2022-11-29T12:00:47.619Z,7.21
2022-11-29T12:01:22.727Z,7.21
2022-11-29T12:02:22.807Z,7.23
2022-11-29T12:03:22.765Z,7.18
2022-11-29T12:04:22.692Z,7.18
2022-11-29T12:05:22.682Z,7.16
2022-11-29T12:06:22.668Z,7.18
2022-11-29T12:07:38.772Z,7.19
2022-11-29T12:08:23.686Z,7.23
2022-11-29T12:09:22.636Z,7.23
2022-11-29T12:10:22.621Z,7.24
2022-11-29T12:11:22.612Z,7.32
2022-11-29T12:12:22.602Z,7.33
2022-11-29T12:13:22.591Z,7.33
2022-11-29T12:14:22.576Z,7.29
2022-11-29T12:15:22.574Z,7.27
2022-11-29T12:16:22.555Z,7.21
2022-11-29T12:17:22.546Z,7.23
2022-11-29T12:18:22.560Z,7.23
2022-11-29T12:19:22.523Z,7.19
2022-11-29T12:20:22.509Z,7.21
2022-11-29T12:21:22.523Z,7.19
2022-11-29T12:22:22.487Z,7.23
2022-11-29T12:23:22.478Z,7.23
2022-11-29T12:24:22.475Z,7.24
2022-11-29T12:25:22.460Z,7.27
2022-11-29T12:26:55.337Z,7.27
2022-11-29T12:27:23.457Z,7.27
2022-11-29T12:28:22.420Z,7.30
2022-11-29T12:29:22.438Z,7.34
2022-11-29T12:30:22.396Z,7.33
2022-11-29T12:31:22.495Z,7.33
2022-11-29T12:32:22.674Z,7.32
2022-11-29T12:33:22.374Z,7.33
2022-11-29T12:34:22.953Z,7.30
2022-11-29T12:35:22.344Z,7.27
2022-11-29T12:36:22.330Z,7.26
2022-11-29T12:37:22.323Z,7.23
2022-11-29T12:38:22.305Z,7.29
2022-11-29T12:39:22.299Z,7.27
2022-11-29T12:40:22.289Z,7.32
2022-11-29T12:41:22.273Z,7.30
2022-11-29T12:42:22.261Z,7.32
2022-11-29T12:43:22.254Z,7.33
2022-11-29T12:44:22.237Z,7.33
2022-11-29T12:45:22.232Z,7.32
2022-11-29T12:46:22.263Z,7.33
2022-11-29T12:47:37.732Z,7.36
2022-11-29T12:48:23.396Z,7.34
2022-11-29T12:49:22.187Z,7.33
2022-11-29T12:50:22.215Z,7.33
2022-11-29T12:51:22.168Z,7.34
2022-11-29T12:52:22.148Z,7.30
2022-11-29T12:53:27.002Z,7.32
2022-11-29T12:54:22.134Z,7.33
2022-11-29T12:55:22.123Z,7.33
2022-11-29T12:56:22.106Z,7.34
2022-11-29T12:57:22.095Z,7.34
2022-11-29T12:58:22.081Z,7.33
2022-11-29T12:59:22.075Z,7.36
2022-11-29T13:00:22.061Z,7.34
2022-11-29T13:01:22.114Z,7.33
2022-11-29T13:02:22.102Z,7.33
2022-11-29T13:03:22.045Z,7.33
2022-11-29T13:04:22.017Z,7.27
2022-11-29T13:05:22.006Z,7.26
2022-11-29T13:06:22.016Z,7.29
2022-11-29T13:07:22.075Z,7.27
2022-11-29T13:08:21.968Z,7.29
2022-11-29T13:09:21.969Z,7.29
2022-11-29T13:10:21.945Z,7.29
2022-11-29T13:11:21.944Z,7.26
2022-11-29T13:12:21.926Z,7.27
2022-11-29T13:13:21.961Z,7.24
2022-11-29T13:15:21.958Z,7.29
2022-11-29T13:16:26.303Z,7.32
2022-11-29T13:17:22.016Z,7.30
2022-11-29T13:18:22.051Z,7.32
2022-11-29T13:19:22.015Z,7.30
2022-11-29T13:20:21.892Z,7.33
2022-11-29T13:21:21.847Z,7.34